createdAt,value
2022-10-25T00:00:59.655Z,13.00
2022-10-25T00:03:26.646Z,12.90
2022-10-25T00:05:53.713Z,12.80
2022-10-25T00:08:20.706Z,12.70
2022-10-25T00:10:47.733Z,12.60
2022-10-25T00:13:14.764Z,12.50
2022-10-25T00:15:41.809Z,12.50
2022-10-25T00:18:08.802Z,12.40
2022-10-25T00:20:38.349Z,12.30
2022-10-25T00:23:05.366Z,12.20
2022-10-25T00:25:32.356Z,12.20
2022-10-25T00:27:59.451Z,12.10
2022-10-25T00:30:26.446Z,12.10
2022-10-25T00:32:54.533Z,12.10
2022-10-25T00:35:21.925Z,12.20
2022-10-25T00:37:49.342Z,12.40
2022-10-25T00:40:17.841Z,12.50
2022-10-25T00:42:45.383Z,12.60
2022-10-25T00:45:28.252Z,12.60
2022-10-25T00:48:10.096Z,12.70
2022-10-25T00:50:48.750Z,12.70
2022-10-25T00:53:25.990Z,12.80
2022-10-25T00:56:08.610Z,12.80
2022-10-25T00:58:39.446Z,12.90
2022-10-25T01:01:10.158Z,13.00
2022-10-25T01:03:40.375Z,13.00
2022-10-25T01:06:18.137Z,13.00
2022-10-25T01:08:47.430Z,13.00
2022-10-25T01:11:14.529Z,13.00
2022-10-25T01:13:42.078Z,13.00
2022-10-25T01:16:37.630Z,12.90
2022-10-25T01:19:38.681Z,12.90
2022-10-25T01:22:39.187Z,12.90
2022-10-25T01:25:15.528Z,12.90
2022-10-25T01:28:36.402Z,12.90
2022-10-25T01:31:19.531Z,13.00
2022-10-25T01:34:25.332Z,13.00
2022-10-25T01:37:13.490Z,13.10
2022-10-25T01:39:59.834Z,13.10
2022-10-25T01:42:31.533Z,13.10
2022-10-25T01:45:19.470Z,13.00
2022-10-25T01:48:04.143Z,13.10
2022-10-25T01:50:39.782Z,13.00
2022-10-25T01:53:06.883Z,13.00
2022-10-25T01:55:55.822Z,13.00
2022-10-25T01:58:38.511Z,13.00
2022-10-25T02:01:40.020Z,13.00
2022-10-25T02:04:23.795Z,13.00
2022-10-25T02:07:07.929Z,13.10
2022-10-25T02:09:59.297Z,13.10
2022-10-25T02:12:42.451Z,13.10
2022-10-25T02:15:18.005Z,13.10
2022-10-25T02:17:53.709Z,13.10
2022-10-25T02:20:24.815Z,13.10
2022-10-25T02:22:53.932Z,13.10
2022-10-25T02:25:22.518Z,13.00
2022-10-25T02:27:53.113Z,13.00
2022-10-25T02:30:20.712Z,12.90
2022-10-25T02:32:47.766Z,13.00
2022-10-25T02:35:17.473Z,13.00
2022-10-25T02:37:45.122Z,13.10
2022-10-25T02:40:12.923Z,13.10
2022-10-25T02:42:39.942Z,13.10
2022-10-25T02:45:07.914Z,13.20
2022-10-25T02:47:34.937Z,13.10
2022-10-25T02:50:01.992Z,13.10
2022-10-25T02:52:29.064Z,13.10
2022-10-25T02:54:56.046Z,13.10
2022-10-25T02:57:23.231Z,13.10
2022-10-25T02:59:50.215Z,13.20
2022-10-25T03:02:17.235Z,13.20
2022-10-25T03:04:44.310Z,13.20
2022-10-25T03:07:11.282Z,13.20
2022-10-25T03:09:38.261Z,13.10
2022-10-25T03:12:05.344Z,13.10
2022-10-25T03:14:32.358Z,13.10
2022-10-25T03:16:59.347Z,13.10
2022-10-25T03:19:26.383Z,13.10
2022-10-25T03:21:53.450Z,13.00
2022-10-25T03:24:22.810Z,13.00
2022-10-25T03:26:49.860Z,13.00
2022-10-25T03:29:17.007Z,13.00
2022-10-25T03:31:44.022Z,12.90
2022-10-25T03:34:11.052Z,12.80
2022-10-25T03:36:38.067Z,12.80
2022-10-25T03:39:05.095Z,12.80
2022-10-25T03:41:32.175Z,12.70
2022-10-25T03:43:59.272Z,12.70
2022-10-25T03:46:26.259Z,12.60
2022-10-25T03:48:53.290Z,12.60
2022-10-25T03:51:20.286Z,12.50
2022-10-25T03:53:47.453Z,12.50
2022-10-25T03:56:14.479Z,12.50
2022-10-25T03:58:41.543Z,12.50
2022-10-25T04:01:10.111Z,12.40
2022-10-25T04:03:37.952Z,12.40
2022-10-25T04:06:05.304Z,12.30
2022-10-25T04:08:32.350Z,12.30
2022-10-25T04:11:01.765Z,12.30
2022-10-25T04:13:28.766Z,12.20
2022-10-25T04:15:55.797Z,12.20
2022-10-25T04:18:22.915Z,12.20
2022-10-25T04:20:49.895Z,12.10
2022-10-25T04:23:16.954Z,12.10
2022-10-25T04:25:44.347Z,12.10
2022-10-25T04:28:11.331Z,12.10
2022-10-25T04:30:38.991Z,12.10
2022-10-25T04:33:06.347Z,12.10
2022-10-25T04:35:33.318Z,12.10
2022-10-25T04:38:00.572Z,12.10
2022-10-25T04:40:27.625Z,12.10
2022-10-25T04:42:54.684Z,12.00
2022-10-25T04:45:21.691Z,12.00
2022-10-25T04:47:48.755Z,12.00
2022-10-25T04:50:15.866Z,12.00
2022-10-25T04:52:42.875Z,12.00
2022-10-25T04:55:09.939Z,12.00
2022-10-25T04:57:36.958Z,12.00
2022-10-25T05:00:05.268Z,12.00
2022-10-25T05:02:32.372Z,12.10
2022-10-25T05:04:59.493Z,12.10
2022-10-25T05:07:26.478Z,12.20
2022-10-25T05:09:53.541Z,12.20
2022-10-25T05:12:20.527Z,12.30
2022-10-25T05:14:47.602Z,12.40
2022-10-25T05:17:14.664Z,12.40
2022-10-25T05:19:41.638Z,12.50
2022-10-25T05:22:08.699Z,12.60
2022-10-25T05:24:35.788Z,12.60
2022-10-25T05:27:04.244Z,12.70
2022-10-25T05:29:31.272Z,12.70
2022-10-25T05:31:58.510Z,12.70
2022-10-25T05:34:25.615Z,12.80
2022-10-25T05:36:52.691Z,12.80
2022-10-25T05:39:19.789Z,12.80
2022-10-25T05:41:46.879Z,12.80
2022-10-25T05:44:15.039Z,12.70
2022-10-25T05:46:43.034Z,12.70
2022-10-25T05:49:10.733Z,12.80
2022-10-25T05:51:38.502Z,12.80
2022-10-25T05:54:13.324Z,12.80
2022-10-25T05:56:41.271Z,12.90
2022-10-25T05:59:14.905Z,12.90
2022-10-25T06:01:45.229Z,12.90
2022-10-25T06:04:13.594Z,13.00
2022-10-25T06:06:42.268Z,13.00
2022-10-25T06:09:09.830Z,13.00
2022-10-25T06:11:37.973Z,13.00
2022-10-25T06:14:05.837Z,13.00
2022-10-25T06:16:33.471Z,12.90
2022-10-25T06:19:00.859Z,12.90
2022-10-25T06:21:32.342Z,12.90
2022-10-25T06:24:00.385Z,13.00
2022-10-25T06:26:30.098Z,12.90
2022-10-25T06:29:04.072Z,12.90
2022-10-25T06:31:33.475Z,12.90
2022-10-25T06:34:02.419Z,12.90
2022-10-25T06:36:31.451Z,12.90
2022-10-25T06:39:03.779Z,12.90
2022-10-25T06:41:33.083Z,12.90
2022-10-25T06:44:05.362Z,12.90
2022-10-25T06:49:26.946Z,13.00
2022-10-25T06:51:54.384Z,13.10
2022-10-25T06:54:21.800Z,13.10
2022-10-25T06:56:48.892Z,13.10
2022-10-25T06:59:15.922Z,13.10
2022-10-25T07:01:43.014Z,13.10
2022-10-25T07:04:10.207Z,13.10
2022-10-25T07:06:37.643Z,13.10
2022-10-25T07:09:06.283Z,13.10
2022-10-25T07:11:35.588Z,13.10
2022-10-25T07:14:04.729Z,13.10
2022-10-25T07:16:32.027Z,13.20
2022-10-25T07:19:01.694Z,13.20
2022-10-25T07:21:30.920Z,13.30
2022-10-25T07:23:58.303Z,13.40
2022-10-25T07:26:31.974Z,13.30
2022-10-25T07:29:00.854Z,13.40
2022-10-25T07:31:41.161Z,13.40
2022-10-25T07:34:10.279Z,13.40
2022-10-25T07:36:37.264Z,13.40
2022-10-25T07:39:04.473Z,13.40
2022-10-25T07:41:31.533Z,13.50
2022-10-25T07:43:58.855Z,13.50
2022-10-25T07:46:26.099Z,13.60
2022-10-25T07:48:55.715Z,13.60
2022-10-25T07:51:22.833Z,13.70
2022-10-25T07:53:50.870Z,13.70
2022-10-25T07:56:23.244Z,13.70
2022-10-25T07:58:52.403Z,13.70
2022-10-25T08:01:24.071Z,13.70
2022-10-25T08:03:52.990Z,13.70
2022-10-25T08:06:22.537Z,13.70
2022-10-25T08:08:50.010Z,13.80
2022-10-25T08:11:17.547Z,13.80
2022-10-25T08:13:44.619Z,13.80
2022-10-25T08:16:11.738Z,13.80
2022-10-25T08:18:38.831Z,13.80
2022-10-25T08:21:05.957Z,13.80
2022-10-25T08:23:33.253Z,13.90
2022-10-25T08:26:03.383Z,14.00
2022-10-25T08:28:31.584Z,14.10
2022-10-25T08:31:01.065Z,14.30
2022-10-25T08:33:29.129Z,14.40
2022-10-25T08:35:56.466Z,14.60
2022-10-25T08:38:23.452Z,14.60
2022-10-25T08:41:06.859Z,14.80
2022-10-25T08:44:25.843Z,14.90
2022-10-25T08:47:16.702Z,14.90
2022-10-25T08:50:07.763Z,15.00
2022-10-25T08:52:46.150Z,15.20
2022-10-25T08:55:41.626Z,15.20
2022-10-25T08:59:00.361Z,15.30
2022-10-25T09:01:55.793Z,15.30
2022-10-25T09:04:23.222Z,15.40
2022-10-25T09:07:16.039Z,15.40
2022-10-25T09:09:59.037Z,15.40
2022-10-25T09:13:16.738Z,15.40
2022-10-25T09:16:01.516Z,15.40
2022-10-25T09:18:48.701Z,15.50
2022-10-25T09:21:48.618Z,15.50
2022-10-25T09:24:29.476Z,15.50
2022-10-25T09:27:08.736Z,15.50
2022-10-25T09:29:53.193Z,15.40
2022-10-25T09:32:54.290Z,15.40
2022-10-25T09:35:26.883Z,15.50
2022-10-25T09:38:01.915Z,15.60
2022-10-25T09:41:00.710Z,15.70
2022-10-25T09:43:36.670Z,15.60
2022-10-25T09:46:39.166Z,15.60
2022-10-25T09:49:38.030Z,15.60
2022-10-25T09:52:19.413Z,15.60
2022-10-25T09:54:56.102Z,15.70
2022-10-25T09:57:23.206Z,15.80
2022-10-25T09:59:52.197Z,15.80
2022-10-25T10:02:25.445Z,15.80
2022-10-25T10:04:53.393Z,15.80
2022-10-25T10:07:30.842Z,15.90
2022-10-25T10:10:01.236Z,15.80
2022-10-25T10:12:52.056Z,15.90
2022-10-25T10:15:36.165Z,15.80
2022-10-25T10:18:34.863Z,15.90
2022-10-25T10:21:18.015Z,15.90
2022-10-25T10:24:02.045Z,16.00
2022-10-25T10:26:38.691Z,15.90
2022-10-25T10:29:22.215Z,15.90
2022-10-25T10:31:56.688Z,16.00
2022-10-25T10:34:26.686Z,16.10
2022-10-25T10:37:14.395Z,16.10
2022-10-25T10:39:53.173Z,16.30
2022-10-25T10:42:41.338Z,16.30
2022-10-25T10:45:08.444Z,16.20
2022-10-25T10:47:58.032Z,16.10
2022-10-25T10:50:31.453Z,16.10
2022-10-25T10:53:21.588Z,16.00
2022-10-25T10:55:53.259Z,16.00
2022-10-25T10:58:27.091Z,15.90
2022-10-25T11:01:08.490Z,15.90
2022-10-25T11:03:49.221Z,15.70
2022-10-25T11:06:32.174Z,15.70
2022-10-25T11:09:17.870Z,15.80
2022-10-25T11:11:46.816Z,15.80
2022-10-25T11:14:16.000Z,15.90
2022-10-25T11:17:02.794Z,15.90
2022-10-25T11:20:01.829Z,16.00
2022-10-25T11:22:40.684Z,16.10
2022-10-25T11:25:13.172Z,16.30
2022-10-25T11:27:46.082Z,16.50
2022-10-25T11:30:25.048Z,16.70
2022-10-25T11:33:02.029Z,16.70
2022-10-25T11:35:56.146Z,16.80
2022-10-25T11:38:48.242Z,16.70
2022-10-25T11:41:33.931Z,16.60
2022-10-25T11:44:44.339Z,16.60
2022-10-25T11:47:45.263Z,16.50
2022-10-25T11:50:36.835Z,16.50
2022-10-25T11:53:57.063Z,16.40
2022-10-25T11:56:38.527Z,16.40
2022-10-25T11:59:21.671Z,16.40
2022-10-25T12:02:04.389Z,16.40
2022-10-25T12:05:01.721Z,16.30
2022-10-25T12:07:55.492Z,16.30
2022-10-25T12:10:33.124Z,16.30
2022-10-25T12:13:19.253Z,16.50
2022-10-25T12:15:50.191Z,16.30
2022-10-25T12:18:40.908Z,16.10
2022-10-25T12:21:11.587Z,16.00
2022-10-25T12:23:49.797Z,16.20
2022-10-25T12:26:34.778Z,16.40
2022-10-25T12:29:12.490Z,16.50
2022-10-25T12:31:46.838Z,16.40
2022-10-25T12:34:56.515Z,16.50
2022-10-25T12:37:57.970Z,16.30
2022-10-25T12:40:29.159Z,16.20
2022-10-25T12:43:07.636Z,16.10
2022-10-25T12:46:08.639Z,16.00
2022-10-25T12:48:59.909Z,16.10
2022-10-25T12:51:59.920Z,16.10
2022-10-25T12:54:38.540Z,16.10
2022-10-25T12:57:44.718Z,16.00
2022-10-25T13:00:22.502Z,16.00
2022-10-25T13:03:19.843Z,15.90
2022-10-25T13:06:04.711Z,15.90
2022-10-25T13:08:33.801Z,16.40
2022-10-25T13:11:06.727Z,17.10
2022-10-25T13:13:39.248Z,18.00
2022-10-25T13:16:10.183Z,18.20
2022-10-25T13:18:45.324Z,18.20
2022-10-25T13:21:54.682Z,18.40
2022-10-25T13:24:39.867Z,18.50
2022-10-25T13:27:12.685Z,18.50
2022-10-25T13:30:01.940Z,18.50
2022-10-25T13:33:19.003Z,18.50
2022-10-25T13:35:49.100Z,18.50
2022-10-25T13:38:27.823Z,18.20
2022-10-25T13:41:18.038Z,17.70
2022-10-25T13:44:00.522Z,17.10
2022-10-25T13:46:36.425Z,17.10
2022-10-25T13:49:26.729Z,16.80
2022-10-25T13:52:05.043Z,16.70
2022-10-25T13:54:48.722Z,16.60
2022-10-25T13:57:56.663Z,16.50
2022-10-25T14:00:41.231Z,16.60
2022-10-25T14:03:08.473Z,16.60
2022-10-25T14:05:54.095Z,16.50
2022-10-25T14:09:00.951Z,16.60
2022-10-25T14:11:59.527Z,16.50
2022-10-25T14:15:18.666Z,16.80
2022-10-25T14:17:45.909Z,17.20
2022-10-25T14:20:28.760Z,17.80
2022-10-25T14:23:15.014Z,17.90
2022-10-25T14:25:51.183Z,17.70
2022-10-25T14:28:28.326Z,17.40
2022-10-25T14:31:05.170Z,17.00
2022-10-25T14:33:46.646Z,16.80
2022-10-25T14:36:36.847Z,16.60
2022-10-25T14:39:20.068Z,16.50
2022-10-25T14:41:58.332Z,16.40
2022-10-25T14:44:25.464Z,16.50
2022-10-25T14:46:53.691Z,16.40
2022-10-25T14:49:22.497Z,16.30
2022-10-25T14:51:55.722Z,16.10
2022-10-25T14:54:34.917Z,15.80
2022-10-25T14:57:11.554Z,15.70
2022-10-25T14:59:51.178Z,15.60
2022-10-25T15:02:24.918Z,15.60
2022-10-25T15:04:56.925Z,15.60
2022-10-25T15:07:30.072Z,15.60
2022-10-25T15:10:00.634Z,15.60
2022-10-25T15:12:34.574Z,15.60
2022-10-25T15:15:36.638Z,15.60
2022-10-25T15:18:04.484Z,15.60
2022-10-25T15:20:34.717Z,15.60
2022-10-25T15:23:25.576Z,15.60
2022-10-25T15:25:52.615Z,15.60
2022-10-25T15:28:20.167Z,15.50
2022-10-25T15:30:50.111Z,15.40
2022-10-25T15:33:26.014Z,15.30
2022-10-25T15:36:05.191Z,15.20
2022-10-25T15:39:01.568Z,14.90
2022-10-25T15:41:23.715Z,14.70
2022-10-25T15:43:52.024Z,14.50
2022-10-25T15:46:34.095Z,14.50
2022-10-25T15:49:05.238Z,14.20
2022-10-25T15:51:39.992Z,14.10
2022-10-25T15:54:17.102Z,13.90
2022-10-25T15:56:45.271Z,13.80
2022-10-25T15:59:13.366Z,13.60
2022-10-25T16:01:48.132Z,13.50
2022-10-25T16:04:17.668Z,13.40
2022-10-25T16:06:45.821Z,13.20
2022-10-25T16:09:12.869Z,13.00
2022-10-25T16:11:46.944Z,12.90
2022-10-25T16:14:24.196Z,12.90
2022-10-25T16:16:51.402Z,12.70
2022-10-25T16:19:21.575Z,12.60
2022-10-25T16:21:48.763Z,12.50
2022-10-25T16:24:15.794Z,12.40
2022-10-25T16:26:46.655Z,12.30
2022-10-25T16:29:26.526Z,12.20
2022-10-25T16:31:54.137Z,12.10
2022-10-25T16:34:22.071Z,12.00
2022-10-25T16:36:50.868Z,11.90
2022-10-25T16:39:19.505Z,11.90
2022-10-25T16:41:48.022Z,11.80
2022-10-25T16:44:18.829Z,11.70
2022-10-25T16:46:46.511Z,11.60
2022-10-25T16:49:13.569Z,11.60
2022-10-25T16:51:41.051Z,11.50
2022-10-25T16:54:08.798Z,11.50
2022-10-25T16:56:35.873Z,11.50
2022-10-25T16:59:03.535Z,11.40
2022-10-25T17:01:39.987Z,11.40
2022-10-25T17:04:11.317Z,11.40
2022-10-25T17:06:42.406Z,11.30
2022-10-25T17:09:10.540Z,11.30
2022-10-25T17:11:37.902Z,11.20
2022-10-25T17:14:05.836Z,11.20
2022-10-25T17:16:33.427Z,11.20
2022-10-25T17:19:00.856Z,11.10
2022-10-25T17:21:28.459Z,11.10
2022-10-25T17:23:56.449Z,11.00
2022-10-25T17:26:23.789Z,10.90
2022-10-25T17:28:50.963Z,11.00
2022-10-25T17:31:18.315Z,10.90
2022-10-25T17:33:46.753Z,10.90
2022-10-25T17:36:19.105Z,10.80
2022-10-25T17:38:46.835Z,10.80
2022-10-25T17:41:14.628Z,10.80
2022-10-25T17:43:42.221Z,10.60
2022-10-25T17:46:19.971Z,10.70
2022-10-25T17:48:47.564Z,10.70
2022-10-25T17:51:16.168Z,10.70
2022-10-25T17:53:43.186Z,10.60
2022-10-25T17:56:20.308Z,10.60
2022-10-25T17:58:49.164Z,10.60
2022-10-25T18:01:28.391Z,10.60
2022-10-25T18:03:55.930Z,10.50
2022-10-25T18:06:26.666Z,10.50
2022-10-25T18:08:57.074Z,10.50
2022-10-25T18:11:27.565Z,10.40
2022-10-25T18:13:58.466Z,10.40
2022-10-25T18:16:27.443Z,10.40
2022-10-25T18:18:57.906Z,10.40
2022-10-25T18:21:26.226Z,10.30
2022-10-25T18:24:02.788Z,10.30
2022-10-25T18:26:30.122Z,10.20
2022-10-25T18:28:58.359Z,10.10
2022-10-25T18:31:27.583Z,10.10
2022-10-25T18:33:55.480Z,10.10
2022-10-25T18:36:23.427Z,10.10
2022-10-25T18:38:51.805Z,10.10
2022-10-25T18:41:22.907Z,10.10
2022-10-25T18:43:50.495Z,10.10
2022-10-25T18:46:18.322Z,10.00
2022-10-25T18:48:53.104Z,9.90
2022-10-25T18:51:22.944Z,9.80
2022-10-25T18:53:54.684Z,9.80
2022-10-25T18:56:25.018Z,9.80
2022-10-25T18:58:54.103Z,9.70
2022-10-25T19:01:32.039Z,9.70
2022-10-25T19:04:02.901Z,9.70
2022-10-25T19:06:32.410Z,9.60
2022-10-25T19:09:03.074Z,9.70
2022-10-25T19:11:33.796Z,9.60
2022-10-25T19:14:04.324Z,9.50
2022-10-25T19:16:31.940Z,9.50
2022-10-25T19:19:13.241Z,9.40
2022-10-25T19:21:40.328Z,9.40
2022-10-25T19:24:11.944Z,9.50
2022-10-25T19:26:39.422Z,9.50
2022-10-25T19:29:08.811Z,9.60
2022-10-25T19:31:35.850Z,9.60
2022-10-25T19:34:08.630Z,9.70
2022-10-25T19:36:35.967Z,9.70
2022-10-25T19:39:07.488Z,9.70
2022-10-25T19:41:34.552Z,9.70
2022-10-25T19:44:01.915Z,9.80
2022-10-25T19:46:29.132Z,9.80
2022-10-25T19:48:57.509Z,9.80
2022-10-25T19:51:24.558Z,9.90
2022-10-25T19:53:52.996Z,9.90
2022-10-25T19:56:26.771Z,9.90
2022-10-25T19:58:54.151Z,9.90
2022-10-25T20:01:24.258Z,9.80
2022-10-25T20:03:55.233Z,9.80
2022-10-25T20:06:29.760Z,9.80
2022-10-25T20:08:58.988Z,9.70
2022-10-25T20:11:28.279Z,9.70
2022-10-25T20:13:59.158Z,9.70
2022-10-25T20:16:31.208Z,9.70
2022-10-25T20:19:01.566Z,9.70
2022-10-25T20:21:37.127Z,9.70
2022-10-25T20:24:08.294Z,9.70
2022-10-25T20:26:44.943Z,9.80
2022-10-25T20:29:22.996Z,9.80
2022-10-25T20:31:51.541Z,9.80
2022-10-25T20:34:20.302Z,9.70
2022-10-25T20:36:49.298Z,9.70
2022-10-25T20:39:16.560Z,9.60
2022-10-25T20:41:44.645Z,9.60
2022-10-25T20:44:15.558Z,9.60
2022-10-25T20:46:42.691Z,9.60
2022-10-25T20:49:09.735Z,9.50
2022-10-25T20:51:38.376Z,9.50
2022-10-25T20:54:09.493Z,9.50
2022-10-25T20:56:37.392Z,9.50
2022-10-25T20:59:04.975Z,9.50
2022-10-25T21:01:32.629Z,9.40
2022-10-25T21:03:59.713Z,9.50
2022-10-25T21:06:26.796Z,9.40
2022-10-25T21:08:53.826Z,9.40
2022-10-25T21:11:20.846Z,9.40
2022-10-25T21:13:47.902Z,9.40
2022-10-25T21:16:16.485Z,9.40
2022-10-25T21:18:44.123Z,9.50
2022-10-25T21:21:18.469Z,9.50
2022-10-25T21:23:47.399Z,9.50
2022-10-25T21:26:14.559Z,9.50
2022-10-25T21:28:41.977Z,9.50
2022-10-25T21:31:15.419Z,9.60
2022-10-25T21:33:49.944Z,9.60
2022-10-25T21:36:19.967Z,9.60
2022-10-25T21:38:47.157Z,9.50
2022-10-25T21:41:20.730Z,9.50
2022-10-25T21:43:49.906Z,9.50
2022-10-25T21:46:19.483Z,9.60
2022-10-25T21:48:48.127Z,9.60
2022-10-25T21:51:15.263Z,9.60
2022-10-25T21:53:42.357Z,9.60
2022-10-25T21:56:15.597Z,9.60
2022-10-25T21:58:45.227Z,9.60
2022-10-25T22:01:19.159Z,9.50
2022-10-25T22:03:46.330Z,9.50
2022-10-25T22:06:17.237Z,9.50
2022-10-25T22:08:44.551Z,9.60
2022-10-25T22:11:15.004Z,9.60
2022-10-25T22:13:42.986Z,9.60
2022-10-25T22:16:17.317Z,9.60
2022-10-25T22:18:52.138Z,9.70
2022-10-25T22:21:19.722Z,9.80
2022-10-25T22:23:47.191Z,9.90
2022-10-25T22:26:18.091Z,10.10
2022-10-25T22:28:45.178Z,10.20
2022-10-25T22:31:15.819Z,10.40
2022-10-25T22:33:44.205Z,10.50
2022-10-25T22:36:38.354Z,10.50
2022-10-25T22:39:07.350Z,10.40
2022-10-25T22:41:34.709Z,10.40
2022-10-25T22:44:02.022Z,10.30
2022-10-25T22:46:32.879Z,10.20
2022-10-25T22:49:05.083Z,10.20
2022-10-25T22:51:32.586Z,10.30
2022-10-25T22:53:59.703Z,10.50
2022-10-25T22:56:29.352Z,10.60
2022-10-25T22:59:02.614Z,10.60
2022-10-25T23:01:32.584Z,10.70
2022-10-25T23:04:00.589Z,10.80
2022-10-25T23:06:33.977Z,10.90
2022-10-25T23:09:04.163Z,10.80
2022-10-25T23:11:36.588Z,10.80
2022-10-25T23:14:05.262Z,10.80
2022-10-25T23:16:39.425Z,10.70
2022-10-25T23:19:06.464Z,10.60
2022-10-25T23:21:33.555Z,10.70
2022-10-25T23:24:00.963Z,10.80
2022-10-25T23:26:36.663Z,10.80
2022-10-25T23:29:05.119Z,10.80
2022-10-25T23:31:32.906Z,10.80
2022-10-25T23:34:00.977Z,10.70
2022-10-25T23:36:37.462Z,10.70
2022-10-25T23:39:07.014Z,10.70
2022-10-25T23:41:34.078Z,10.70
2022-10-25T23:44:01.209Z,10.70
2022-10-25T23:46:28.230Z,10.60
2022-10-25T23:48:55.458Z,10.70
2022-10-25T23:51:22.462Z,10.70
2022-10-25T23:53:49.775Z,10.70
2022-10-25T23:56:16.830Z,10.80
2022-10-25T23:58:43.859Z,10.80
